Madison, Wisconsin
Current Conditions -  °F | °C
As of 11:53 PM on Sunday 21 Dec 2014 (Local Time) from KMSN Reporting Station
Overcast Overcast  
Wind Chill: -4°   Ceiling: 4000
Heat Index:   Visibility: 10mi
Dew Point: -2°   Wind: 16mph
Humidity: 78%   Direction: 160°SSE
Pressure: 29.93"   Gusts: NA
Location:  43.07°N, 89.39°W
Report Text: KMSN 220553Z AUTO 16014KT 10SM OVC040 02/M02 A2993 RMK AO2 SLP144 T00171017 10028 20017 400281011 58009
Loading
Personal Weather Stations






























Interactive Weather Map New forecast layout! Learn more

10-Day Weather Forecast

Advertisements
Track Severe Weather on mobile